sensor_id;sensor_type;location;lat;lon;timestamp;P1;durP1;ratioP1;P2;durP2;ratioP2
11191;SDS011;5652;48.406;10.820;2023-06-26T00:01:51;10.38;;;7.88;;
11191;SDS011;5652;48.406;10.820;2023-06-26T00:04:18;14.13;;;7.53;;
11191;SDS011;5652;48.406;10.820;2023-06-26T00:06:47;10.80;;;7.50;;
11191;SDS011;5652;48.406;10.820;2023-06-26T00:09:14;10.47;;;7.20;;
11191;SDS011;5652;48.406;10.820;2023-06-26T00:11:41;11.68;;;7.65;;
11191;SDS011;5652;48.406;10.820;2023-06-26T00:14:08;9.35;;;7.30;;
11191;SDS011;5652;48.406;10.820;2023-06-26T00:16:35;10.23;;;6.95;;
11191;SDS011;5652;48.406;10.820;2023-06-26T00:19:02;9.25;;;7.28;;
11191;SDS011;5652;48.406;10.820;2023-06-26T00:21:29;9.98;;;7.45;;
11191;SDS011;5652;48.406;10.820;2023-06-26T00:23:58;11.85;;;8.00;;
11191;SDS011;5652;48.406;10.820;2023-06-26T00:26:35;9.38;;;7.30;;
11191;SDS011;5652;48.406;10.820;2023-06-26T00:29:03;9.40;;;7.70;;
11191;SDS011;5652;48.406;10.820;2023-06-26T00:31:30;9.87;;;7.87;;
11191;SDS011;5652;48.406;10.820;2023-06-26T00:33:58;9.73;;;7.32;;
11191;SDS011;5652;48.406;10.820;2023-06-26T00:36:25;10.57;;;7.97;;
11191;SDS011;5652;48.406;10.820;2023-06-26T00:38:52;10.63;;;8.03;;
11191;SDS011;5652;48.406;10.820;2023-06-26T00:41:23;10.63;;;7.72;;
11191;SDS011;5652;48.406;10.820;2023-06-26T00:43:50;9.82;;;7.70;;
11191;SDS011;5652;48.406;10.820;2023-06-26T00:46:23;11.07;;;8.00;;
11191;SDS011;5652;48.406;10.820;2023-06-26T00:48:51;10.57;;;7.97;;
11191;SDS011;5652;48.406;10.820;2023-06-26T00:51:19;10.80;;;7.93;;
11191;SDS011;5652;48.406;10.820;2023-06-26T00:53:47;10.60;;;7.88;;
11191;SDS011;5652;48.406;10.820;2023-06-26T00:56:16;10.35;;;7.68;;
11191;SDS011;5652;48.406;10.820;2023-06-26T00:58:46;10.52;;;7.43;;
11191;SDS011;5652;48.406;10.820;2023-06-26T01:01:14;10.03;;;7.90;;
11191;SDS011;5652;48.406;10.820;2023-06-26T01:03:44;11.63;;;8.30;;
11191;SDS011;5652;48.406;10.820;2023-06-26T01:06:14;10.60;;;7.97;;
11191;SDS011;5652;48.406;10.820;2023-06-26T01:08:42;10.07;;;7.68;;
11191;SDS011;5652;48.406;10.820;2023-06-26T01:11:10;10.95;;;7.90;;
11191;SDS011;5652;48.406;10.820;2023-06-26T01:13:37;11.20;;;8.13;;
11191;SDS011;5652;48.406;10.820;2023-06-26T01:16:06;11.10;;;8.18;;
11191;SDS011;5652;48.406;10.820;2023-06-26T01:18:34;11.20;;;7.95;;
11191;SDS011;5652;48.406;10.820;2023-06-26T01:21:02;11.43;;;7.90;;
11191;SDS011;5652;48.406;10.820;2023-06-26T01:23:30;11.10;;;8.65;;
11191;SDS011;5652;48.406;10.820;2023-06-26T01:26:12;11.32;;;8.50;;
11191;SDS011;5652;48.406;10.820;2023-06-26T01:28:41;10.30;;;8.00;;
11191;SDS011;5652;48.406;10.820;2023-06-26T01:31:09;11.02;;;8.85;;
11191;SDS011;5652;48.406;10.820;2023-06-26T01:33:37;13.10;;;8.73;;
11191;SDS011;5652;48.406;10.820;2023-06-26T01:36:04;11.50;;;8.63;;
11191;SDS011;5652;48.406;10.820;2023-06-26T01:38:32;11.27;;;9.13;;
11191;SDS011;5652;48.406;10.820;2023-06-26T01:40:59;11.32;;;8.65;;
11191;SDS011;5652;48.406;10.820;2023-06-26T01:43:31;12.20;;;8.50;;
11191;SDS011;5652;48.406;10.820;2023-06-26T01:46:06;10.35;;;8.88;;
11191;SDS011;5652;48.406;10.820;2023-06-26T01:48:34;12.70;;;8.80;;
11191;SDS011;5652;48.406;10.820;2023-06-26T01:51:04;10.57;;;8.70;;
11191;SDS011;5652;48.406;10.820;2023-06-26T01:53:33;12.17;;;8.67;;
11191;SDS011;5652;48.406;10.820;2023-06-26T01:56:05;12.05;;;9.07;;
11191;SDS011;5652;48.406;10.820;2023-06-26T01:58:35;12.10;;;9.00;;
11191;SDS011;5652;48.406;10.820;2023-06-26T02:01:02;11.48;;;8.65;;
11191;SDS011;5652;48.406;10.820;2023-06-26T02:03:35;13.57;;;9.43;;
11191;SDS011;5652;48.406;10.820;2023-06-26T02:06:02;12.40;;;9.27;;
11191;SDS011;5652;48.406;10.820;2023-06-26T02:08:30;12.27;;;9.07;;
11191;SDS011;5652;48.406;10.820;2023-06-26T02:10:57;12.30;;;9.45;;
11191;SDS011;5652;48.406;10.820;2023-06-26T02:13:24;11.98;;;9.50;;
11191;SDS011;5652;48.406;10.820;2023-06-26T02:15:53;14.00;;;9.55;;
11191;SDS011;5652;48.406;10.820;2023-06-26T02:18:20;11.75;;;9.05;;
11191;SDS011;5652;48.406;10.820;2023-06-26T02:20:47;12.17;;;9.20;;
11191;SDS011;5652;48.406;10.820;2023-06-26T02:23:14;11.23;;;8.98;;
11191;SDS011;5652;48.406;10.820;2023-06-26T02:25:41;12.02;;;9.38;;
11191;SDS011;5652;48.406;10.820;2023-06-26T02:28:08;10.75;;;9.02;;
11191;SDS011;5652;48.406;10.820;2023-06-26T02:30:36;11.55;;;8.93;;
11191;SDS011;5652;48.406;10.820;2023-06-26T02:33:04;11.80;;;8.90;;
11191;SDS011;5652;48.406;10.820;2023-06-26T02:35:31;12.20;;;8.87;;
11191;SDS011;5652;48.406;10.820;2023-06-26T02:37:59;11.60;;;8.93;;
11191;SDS011;5652;48.406;10.820;2023-06-26T02:40:26;10.43;;;8.47;;
11191;SDS011;5652;48.406;10.820;2023-06-26T02:42:53;11.73;;;8.73;;
11191;SDS011;5652;48.406;10.820;2023-06-26T02:45:20;15.40;;;9.35;;
11191;SDS011;5652;48.406;10.820;2023-06-26T02:47:47;13.40;;;9.20;;
11191;SDS011;5652;48.406;10.820;2023-06-26T02:50:16;12.20;;;9.30;;
11191;SDS011;5652;48.406;10.820;2023-06-26T02:52:43;12.25;;;9.63;;
11191;SDS011;5652;48.406;10.820;2023-06-26T02:55:14;13.57;;;9.53;;
11191;SDS011;5652;48.406;10.820;2023-06-26T02:57:41;13.03;;;9.40;;
11191;SDS011;5652;48.406;10.820;2023-06-26T03:00:09;13.63;;;9.60;;
11191;SDS011;5652;48.406;10.820;2023-06-26T03:02:36;14.50;;;9.45;;
11191;SDS011;5652;48.406;10.820;2023-06-26T03:05:04;12.88;;;9.75;;
11191;SDS011;5652;48.406;10.820;2023-06-26T03:07:32;14.73;;;9.95;;
11191;SDS011;5652;48.406;10.820;2023-06-26T03:09:59;11.55;;;9.25;;
11191;SDS011;5652;48.406;10.820;2023-06-26T03:12:26;13.10;;;9.83;;
11191;SDS011;5652;48.406;10.820;2023-06-26T03:14:53;12.95;;;9.52;;
11191;SDS011;5652;48.406;10.820;2023-06-26T03:17:20;13.00;;;9.48;;
11191;SDS011;5652;48.406;10.820;2023-06-26T03:19:48;12.52;;;9.63;;
11191;SDS011;5652;48.406;10.820;2023-06-26T03:22:15;12.63;;;9.87;;
11191;SDS011;5652;48.406;10.820;2023-06-26T03:24:45;12.50;;;9.47;;
11191;SDS011;5652;48.406;10.820;2023-06-26T03:27:12;12.63;;;9.50;;
11191;SDS011;5652;48.406;10.820;2023-06-26T03:29:39;12.30;;;9.57;;
11191;SDS011;5652;48.406;10.820;2023-06-26T03:32:06;12.23;;;9.18;;
11191;SDS011;5652;48.406;10.820;2023-06-26T03:34:34;12.32;;;9.85;;
11191;SDS011;5652;48.406;10.820;2023-06-26T03:37:01;13.45;;;9.65;;
11191;SDS011;5652;48.406;10.820;2023-06-26T03:39:28;12.70;;;9.75;;
11191;SDS011;5652;48.406;10.820;2023-06-26T03:41:56;12.65;;;9.90;;
11191;SDS011;5652;48.406;10.820;2023-06-26T03:44:25;12.40;;;9.30;;
11191;SDS011;5652;48.406;10.820;2023-06-26T03:46:52;13.98;;;9.82;;
11191;SDS011;5652;48.406;10.820;2023-06-26T03:49:19;12.85;;;9.55;;
11191;SDS011;5652;48.406;10.820;2023-06-26T03:51:47;13.10;;;9.75;;
11191;SDS011;5652;48.406;10.820;2023-06-26T03:54:14;13.10;;;9.85;;
11191;SDS011;5652;48.406;10.820;2023-06-26T03:56:41;14.68;;;10.30;;
11191;SDS011;5652;48.406;10.820;2023-06-26T03:59:09;13.10;;;10.67;;
11191;SDS011;5652;48.406;10.820;2023-06-26T04:01:36;11.55;;;9.80;;
11191;SDS011;5652;48.406;10.820;2023-06-26T04:04:04;12.32;;;10.02;;
11191;SDS011;5652;48.406;10.820;2023-06-26T04:06:31;13.38;;;10.35;;
11191;SDS011;5652;48.406;10.820;2023-06-26T04:08:58;11.90;;;9.85;;
11191;SDS011;5652;48.406;10.820;2023-06-26T04:11:25;12.07;;;10.20;;
11191;SDS011;5652;48.406;10.820;2023-06-26T04:13:53;12.80;;;9.77;;
11191;SDS011;5652;48.406;10.820;2023-06-26T04:16:21;12.63;;;9.65;;
11191;SDS011;5652;48.406;10.820;2023-06-26T04:18:50;12.85;;;9.25;;
11191;SDS011;5652;48.406;10.820;2023-06-26T04:21:17;10.63;;;8.65;;
11191;SDS011;5652;48.406;10.820;2023-06-26T04:23:45;9.77;;;8.35;;
11191;SDS011;5652;48.406;10.820;2023-06-26T04:26:12;12.50;;;9.07;;
11191;SDS011;5652;48.406;10.820;2023-06-26T04:28:42;10.57;;;8.87;;
11191;SDS011;5652;48.406;10.820;2023-06-26T04:31:10;10.50;;;8.97;;
11191;SDS011;5652;48.406;10.820;2023-06-26T04:33:38;10.82;;;8.90;;
11191;SDS011;5652;48.406;10.820;2023-06-26T04:36:06;11.68;;;9.05;;
11191;SDS011;5652;48.406;10.820;2023-06-26T04:38:34;11.60;;;8.85;;
11191;SDS011;5652;48.406;10.820;2023-06-26T04:41:03;12.05;;;9.32;;
11191;SDS011;5652;48.406;10.820;2023-06-26T04:43:30;10.60;;;9.15;;
11191;SDS011;5652;48.406;10.820;2023-06-26T04:45:58;14.43;;;9.60;;
11191;SDS011;5652;48.406;10.820;2023-06-26T04:48:25;11.23;;;9.10;;
11191;SDS011;5652;48.406;10.820;2023-06-26T04:50:55;11.98;;;9.32;;
11191;SDS011;5652;48.406;10.820;2023-06-26T04:53:24;11.48;;;9.10;;
11191;SDS011;5652;48.406;10.820;2023-06-26T04:55:52;12.10;;;9.27;;
11191;SDS011;5652;48.406;10.820;2023-06-26T04:58:19;11.05;;;8.63;;
11191;SDS011;5652;48.406;10.820;2023-06-26T05:00:47;12.17;;;9.13;;
11191;SDS011;5652;48.406;10.820;2023-06-26T05:03:15;11.68;;;9.98;;
11191;SDS011;5652;48.406;10.820;2023-06-26T05:05:42;10.70;;;8.87;;
11191;SDS011;5652;48.406;10.820;2023-06-26T05:08:18;13.88;;;9.50;;
11191;SDS011;5652;48.406;10.820;2023-06-26T05:10:45;13.20;;;9.70;;
11191;SDS011;5652;48.406;10.820;2023-06-26T05:13:12;14.35;;;9.98;;
11191;SDS011;5652;48.406;10.820;2023-06-26T05:15:42;12.23;;;9.95;;
11191;SDS011;5652;48.406;10.820;2023-06-26T05:18:18;11.37;;;9.47;;
11191;SDS011;5652;48.406;10.820;2023-06-26T05:20:59;15.90;;;10.07;;
11191;SDS011;5652;48.406;10.820;2023-06-26T05:23:41;11.57;;;9.15;;
11191;SDS011;5652;48.406;10.820;2023-06-26T05:26:09;15.77;;;9.80;;
11191;SDS011;5652;48.406;10.820;2023-06-26T05:28:38;12.73;;;9.43;;
11191;SDS011;5652;48.406;10.820;2023-06-26T05:31:22;11.95;;;9.57;;
11191;SDS011;5652;48.406;10.820;2023-06-26T05:33:51;15.10;;;9.27;;
11191;SDS011;5652;48.406;10.820;2023-06-26T05:36:31;11.70;;;9.18;;
11191;SDS011;5652;48.406;10.820;2023-06-26T05:39:03;12.25;;;8.80;;
11191;SDS011;5652;48.406;10.820;2023-06-26T05:41:31;11.07;;;8.80;;
11191;SDS011;5652;48.406;10.820;2023-06-26T05:44:04;13.05;;;9.48;;
11191;SDS011;5652;48.406;10.820;2023-06-26T05:46:36;12.00;;;8.70;;
11191;SDS011;5652;48.406;10.820;2023-06-26T05:49:06;11.35;;;9.02;;
11191;SDS011;5652;48.406;10.820;2023-06-26T05:51:46;12.93;;;8.70;;
11191;SDS011;5652;48.406;10.820;2023-06-26T05:57:19;17.30;;;8.43;;
11191;SDS011;5652;48.406;10.820;2023-06-26T05:59:57;10.32;;;8.25;;
11191;SDS011;5652;48.406;10.820;2023-06-26T06:02:41;10.25;;;6.72;;
11191;SDS011;5652;48.406;10.820;2023-06-26T06:05:13;9.75;;;6.60;;
11191;SDS011;5652;48.406;10.820;2023-06-26T06:07:46;11.65;;;6.70;;
11191;SDS011;5652;48.406;10.820;2023-06-26T06:10:17;9.05;;;6.80;;
11191;SDS011;5652;48.406;10.820;2023-06-26T06:18:44;7.97;;;6.32;;
11191;SDS011;5652;48.406;10.820;2023-06-26T06:21:14;8.70;;;6.35;;
11191;SDS011;5652;48.406;10.820;2023-06-26T06:23:41;10.23;;;6.30;;
11191;SDS011;5652;48.406;10.820;2023-06-26T06:26:11;10.10;;;6.57;;
11191;SDS011;5652;48.406;10.820;2023-06-26T06:29:16;9.40;;;6.23;;
11191;SDS011;5652;48.406;10.820;2023-06-26T06:31:46;10.77;;;6.15;;
11191;SDS011;5652;48.406;10.820;2023-06-26T06:34:16;11.17;;;5.77;;
11191;SDS011;5652;48.406;10.820;2023-06-26T06:36:46;9.00;;;6.00;;
11191;SDS011;5652;48.406;10.820;2023-06-26T06:39:13;6.88;;;5.50;;
11191;SDS011;5652;48.406;10.820;2023-06-26T06:41:43;7.38;;;5.30;;
11191;SDS011;5652;48.406;10.820;2023-06-26T06:44:10;7.37;;;5.60;;
11191;SDS011;5652;48.406;10.820;2023-06-26T06:46:37;8.55;;;5.55;;
11191;SDS011;5652;48.406;10.820;2023-06-26T06:49:04;7.00;;;4.35;;
11191;SDS011;5652;48.406;10.820;2023-06-26T06:51:35;7.65;;;5.30;;
11191;SDS011;5652;48.406;10.820;2023-06-26T06:54:02;5.68;;;4.10;;
11191;SDS011;5652;48.406;10.820;2023-06-26T06:56:29;8.45;;;5.70;;
11191;SDS011;5652;48.406;10.820;2023-06-26T06:58:57;7.28;;;4.90;;
11191;SDS011;5652;48.406;10.820;2023-06-26T07:01:24;8.05;;;5.55;;
11191;SDS011;5652;48.406;10.820;2023-06-26T07:03:51;8.32;;;5.35;;
11191;SDS011;5652;48.406;10.820;2023-06-26T07:06:18;7.18;;;5.47;;
11191;SDS011;5652;48.406;10.820;2023-06-26T07:08:47;6.75;;;5.30;;
11191;SDS011;5652;48.406;10.820;2023-06-26T07:11:15;7.22;;;5.32;;
11191;SDS011;5652;48.406;10.820;2023-06-26T07:13:42;7.22;;;5.18;;
11191;SDS011;5652;48.406;10.820;2023-06-26T07:16:09;6.88;;;5.15;;
11191;SDS011;5652;48.406;10.820;2023-06-26T07:18:37;7.35;;;5.57;;
11191;SDS011;5652;48.406;10.820;2023-06-26T07:21:04;6.75;;;5.22;;
11191;SDS011;5652;48.406;10.820;2023-06-26T07:23:31;7.03;;;5.38;;
11191;SDS011;5652;48.406;10.820;2023-06-26T07:26:02;7.22;;;4.97;;
11191;SDS011;5652;48.406;10.820;2023-06-26T07:28:30;7.88;;;5.68;;
11191;SDS011;5652;48.406;10.820;2023-06-26T07:30:57;6.10;;;5.10;;
11191;SDS011;5652;48.406;10.820;2023-06-26T07:33:24;7.53;;;5.80;;
11191;SDS011;5652;48.406;10.820;2023-06-26T07:35:51;6.72;;;5.70;;
11191;SDS011;5652;48.406;10.820;2023-06-26T07:38:18;6.75;;;5.35;;
11191;SDS011;5652;48.406;10.820;2023-06-26T07:40:47;7.57;;;5.43;;
11191;SDS011;5652;48.406;10.820;2023-06-26T07:43:16;7.15;;;5.97;;
11191;SDS011;5652;48.406;10.820;2023-06-26T07:45:43;6.47;;;5.33;;
11191;SDS011;5652;48.406;10.820;2023-06-26T07:48:10;6.57;;;5.70;;
11191;SDS011;5652;48.406;10.820;2023-06-26T07:50:37;8.03;;;5.40;;
11191;SDS011;5652;48.406;10.820;2023-06-26T07:53:04;6.72;;;5.55;;
11191;SDS011;5652;48.406;10.820;2023-06-26T07:55:33;6.82;;;5.35;;
11191;SDS011;5652;48.406;10.820;2023-06-26T07:58:00;7.93;;;5.68;;
11191;SDS011;5652;48.406;10.820;2023-06-26T08:00:29;7.07;;;5.38;;
11191;SDS011;5652;48.406;10.820;2023-06-26T08:02:56;6.63;;;5.53;;
11191;SDS011;5652;48.406;10.820;2023-06-26T08:05:23;6.93;;;5.18;;
11191;SDS011;5652;48.406;10.820;2023-06-26T08:07:50;6.20;;;5.10;;
11191;SDS011;5652;48.406;10.820;2023-06-26T08:10:17;6.15;;;5.00;;
11191;SDS011;5652;48.406;10.820;2023-06-26T08:12:45;6.35;;;5.18;;
11191;SDS011;5652;48.406;10.820;2023-06-26T08:15:13;6.20;;;5.10;;
11191;SDS011;5652;48.406;10.820;2023-06-26T08:17:42;5.68;;;4.88;;
11191;SDS011;5652;48.406;10.820;2023-06-26T08:20:10;6.63;;;5.25;;
11191;SDS011;5652;48.406;10.820;2023-06-26T08:22:38;6.32;;;4.95;;
11191;SDS011;5652;48.406;10.820;2023-06-26T08:25:05;9.03;;;5.20;;
11191;SDS011;5652;48.406;10.820;2023-06-26T08:27:32;5.75;;;5.15;;
11191;SDS011;5652;48.406;10.820;2023-06-26T08:29:59;5.93;;;4.95;;
11191;SDS011;5652;48.406;10.820;2023-06-26T08:32:26;6.67;;;5.23;;
11191;SDS011;5652;48.406;10.820;2023-06-26T08:34:55;7.10;;;5.32;;
11191;SDS011;5652;48.406;10.820;2023-06-26T08:37:22;5.30;;;4.80;;
11191;SDS011;5652;48.406;10.820;2023-06-26T08:39:49;5.53;;;4.63;;
11191;SDS011;5652;48.406;10.820;2023-06-26T08:42:16;5.95;;;4.68;;
11191;SDS011;5652;48.406;10.820;2023-06-26T08:44:43;5.80;;;4.60;;
11191;SDS011;5652;48.406;10.820;2023-06-26T08:47:11;6.35;;;4.90;;
11191;SDS011;5652;48.406;10.820;2023-06-26T08:49:42;5.18;;;4.60;;
11191;SDS011;5652;48.406;10.820;2023-06-26T08:52:13;7.97;;;4.60;;
11191;SDS011;5652;48.406;10.820;2023-06-26T08:54:45;5.53;;;4.80;;
11191;SDS011;5652;48.406;10.820;2023-06-26T08:57:14;5.43;;;4.38;;
11191;SDS011;5652;48.406;10.820;2023-06-26T08:59:42;6.97;;;4.40;;
11191;SDS011;5652;48.406;10.820;2023-06-26T09:02:09;5.95;;;4.78;;
11191;SDS011;5652;48.406;10.820;2023-06-26T09:04:37;5.80;;;4.45;;
11191;SDS011;5652;48.406;10.820;2023-06-26T09:07:04;5.70;;;4.20;;
11191;SDS011;5652;48.406;10.820;2023-06-26T09:09:33;4.88;;;4.38;;
11191;SDS011;5652;48.406;10.820;2023-06-26T09:12:01;5.00;;;4.03;;
11191;SDS011;5652;48.406;10.820;2023-06-26T09:14:28;8.35;;;4.50;;
11191;SDS011;5652;48.406;10.820;2023-06-26T09:16:56;5.22;;;4.43;;
11191;SDS011;5652;48.406;10.820;2023-06-26T09:19:23;5.17;;;4.23;;
11191;SDS011;5652;48.406;10.820;2023-06-26T09:21:50;4.37;;;3.80;;
11191;SDS011;5652;48.406;10.820;2023-06-26T09:24:17;5.33;;;3.90;;
11191;SDS011;5652;48.406;10.820;2023-06-26T09:26:46;5.83;;;3.70;;
11191;SDS011;5652;48.406;10.820;2023-06-26T09:29:13;4.78;;;3.72;;
11191;SDS011;5652;48.406;10.820;2023-06-26T09:31:41;5.80;;;4.05;;
11191;SDS011;5652;48.406;10.820;2023-06-26T09:34:08;6.03;;;4.00;;
11191;SDS011;5652;48.406;10.820;2023-06-26T09:36:36;5.60;;;3.70;;
11191;SDS011;5652;48.406;10.820;2023-06-26T09:41:36;4.32;;;3.78;;
11191;SDS011;5652;48.406;10.820;2023-06-26T09:44:05;5.20;;;3.90;;
11191;SDS011;5652;48.406;10.820;2023-06-26T09:46:33;5.03;;;3.83;;
11191;SDS011;5652;48.406;10.820;2023-06-26T09:49:03;5.18;;;3.75;;
11191;SDS011;5652;48.406;10.820;2023-06-26T09:51:31;3.67;;;2.60;;
11191;SDS011;5652;48.406;10.820;2023-06-26T09:53:58;5.57;;;3.33;;
11191;SDS011;5652;48.406;10.820;2023-06-26T09:56:26;4.45;;;3.70;;
11191;SDS011;5652;48.406;10.820;2023-06-26T09:58:55;3.88;;;3.20;;
11191;SDS011;5652;48.406;10.820;2023-06-26T10:01:24;4.38;;;3.20;;
11191;SDS011;5652;48.406;10.820;2023-06-26T10:03:51;4.85;;;3.85;;
11191;SDS011;5652;48.406;10.820;2023-06-26T10:06:19;4.43;;;3.70;;
11191;SDS011;5652;48.406;10.820;2023-06-26T10:08:46;4.97;;;3.83;;
11191;SDS011;5652;48.406;10.820;2023-06-26T10:11:16;5.00;;;3.45;;
11191;SDS011;5652;48.406;10.820;2023-06-26T10:13:43;4.43;;;3.70;;
11191;SDS011;5652;48.406;10.820;2023-06-26T10:16:12;4.33;;;3.70;;
11191;SDS011;5652;48.406;10.820;2023-06-26T10:18:42;6.55;;;4.13;;
11191;SDS011;5652;48.406;10.820;2023-06-26T10:21:10;3.63;;;3.15;;
11191;SDS011;5652;48.406;10.820;2023-06-26T10:23:38;4.10;;;3.60;;
11191;SDS011;5652;48.406;10.820;2023-06-26T10:26:08;4.65;;;4.07;;
11191;SDS011;5652;48.406;10.820;2023-06-26T10:28:35;4.97;;;3.93;;
11191;SDS011;5652;48.406;10.820;2023-06-26T10:31:02;4.82;;;3.85;;
11191;SDS011;5652;48.406;10.820;2023-06-26T10:33:30;4.35;;;3.95;;
11191;SDS011;5652;48.406;10.820;2023-06-26T10:36:13;4.30;;;3.60;;
11191;SDS011;5652;48.406;10.820;2023-06-26T10:38:49;4.95;;;4.05;;
11191;SDS011;5652;48.406;10.820;2023-06-26T10:41:21;4.57;;;4.03;;
11191;SDS011;5652;48.406;10.820;2023-06-26T10:43:49;4.45;;;4.05;;
11191;SDS011;5652;48.406;10.820;2023-06-26T10:46:17;5.13;;;4.38;;
11191;SDS011;5652;48.406;10.820;2023-06-26T10:48:55;4.97;;;4.20;;
11191;SDS011;5652;48.406;10.820;2023-06-26T10:51:25;5.43;;;4.03;;
11191;SDS011;5652;48.406;10.820;2023-06-26T10:53:55;6.50;;;3.95;;
11191;SDS011;5652;48.406;10.820;2023-06-26T10:56:43;3.92;;;3.42;;
11191;SDS011;5652;48.406;10.820;2023-06-26T10:59:13;4.45;;;3.65;;
11191;SDS011;5652;48.406;10.820;2023-06-26T11:01:40;6.50;;;3.65;;
11191;SDS011;5652;48.406;10.820;2023-06-26T11:04:08;6.22;;;3.60;;
11191;SDS011;5652;48.406;10.820;2023-06-26T11:06:38;5.35;;;4.18;;
11191;SDS011;5652;48.406;10.820;2023-06-26T11:09:09;4.95;;;4.15;;
11191;SDS011;5652;48.406;10.820;2023-06-26T11:11:59;6.03;;;4.03;;
11191;SDS011;5652;48.406;10.820;2023-06-26T11:14:32;5.93;;;4.15;;
11191;SDS011;5652;48.406;10.820;2023-06-26T11:17:05;6.40;;;4.43;;
11191;SDS011;5652;48.406;10.820;2023-06-26T11:19:46;4.90;;;4.30;;
11191;SDS011;5652;48.406;10.820;2023-06-26T11:22:18;5.68;;;4.55;;
11191;SDS011;5652;48.406;10.820;2023-06-26T11:24:45;6.37;;;4.70;;
11191;SDS011;5652;48.406;10.820;2023-06-26T11:27:13;6.60;;;4.88;;
11191;SDS011;5652;48.406;10.820;2023-06-26T11:29:46;6.40;;;4.82;;
11191;SDS011;5652;48.406;10.820;2023-06-26T11:32:14;6.35;;;4.40;;
11191;SDS011;5652;48.406;10.820;2023-06-26T11:34:41;5.40;;;4.50;;
11191;SDS011;5652;48.406;10.820;2023-06-26T11:37:09;8.38;;;4.60;;
11191;SDS011;5652;48.406;10.820;2023-06-26T11:39:38;4.95;;;4.18;;
11191;SDS011;5652;48.406;10.820;2023-06-26T11:42:05;6.78;;;4.70;;
11191;SDS011;5652;48.406;10.820;2023-06-26T11:44:32;5.18;;;4.60;;
11191;SDS011;5652;48.406;10.820;2023-06-26T11:47:06;4.88;;;4.35;;
11191;SDS011;5652;48.406;10.820;2023-06-26T11:49:34;4.47;;;4.00;;
11191;SDS011;5652;48.406;10.820;2023-06-26T11:52:02;5.15;;;3.90;;
11191;SDS011;5652;48.406;10.820;2023-06-26T11:54:29;5.43;;;4.53;;
11191;SDS011;5652;48.406;10.820;2023-06-26T11:56:58;4.82;;;3.80;;
11191;SDS011;5652;48.406;10.820;2023-06-26T11:59:35;3.95;;;3.30;;
11191;SDS011;5652;48.406;10.820;2023-06-26T12:02:06;5.30;;;3.70;;
11191;SDS011;5652;48.406;10.820;2023-06-26T12:04:34;6.13;;;4.00;;
11191;SDS011;5652;48.406;10.820;2023-06-26T12:07:04;4.93;;;3.95;;
11191;SDS011;5652;48.406;10.820;2023-06-26T12:09:34;4.57;;;3.75;;
11191;SDS011;5652;48.406;10.820;2023-06-26T12:12:02;4.78;;;3.65;;
11191;SDS011;5652;48.406;10.820;2023-06-26T12:14:30;5.20;;;3.88;;
11191;SDS011;5652;48.406;10.820;2023-06-26T12:17:03;4.90;;;3.67;;
11191;SDS011;5652;48.406;10.820;2023-06-26T12:19:31;4.53;;;3.72;;
11191;SDS011;5652;48.406;10.820;2023-06-26T12:21:58;5.80;;;4.22;;
11191;SDS011;5652;48.406;10.820;2023-06-26T12:24:25;5.23;;;4.00;;
11191;SDS011;5652;48.406;10.820;2023-06-26T12:26:53;5.30;;;4.00;;
11191;SDS011;5652;48.406;10.820;2023-06-26T12:29:28;5.57;;;4.53;;
11191;SDS011;5652;48.406;10.820;2023-06-26T12:31:59;4.68;;;4.28;;
11191;SDS011;5652;48.406;10.820;2023-06-26T12:34:28;4.20;;;3.80;;
11191;SDS011;5652;48.406;10.820;2023-06-26T12:36:59;4.70;;;4.20;;
11191;SDS011;5652;48.406;10.820;2023-06-26T12:39:26;5.05;;;4.40;;
11191;SDS011;5652;48.406;10.820;2023-06-26T12:41:54;4.80;;;4.30;;
11191;SDS011;5652;48.406;10.820;2023-06-26T12:44:24;6.37;;;4.37;;
11191;SDS011;5652;48.406;10.820;2023-06-26T12:46:54;7.07;;;4.30;;
11191;SDS011;5652;48.406;10.820;2023-06-26T12:49:28;5.00;;;4.50;;
11191;SDS011;5652;48.406;10.820;2023-06-26T12:51:55;7.32;;;4.68;;
11191;SDS011;5652;48.406;10.820;2023-06-26T12:54:22;6.03;;;4.20;;
11191;SDS011;5652;48.406;10.820;2023-06-26T12:56:49;6.95;;;4.30;;
11191;SDS011;5652;48.406;10.820;2023-06-26T12:59:17;4.90;;;4.40;;
11191;SDS011;5652;48.406;10.820;2023-06-26T13:01:45;5.25;;;4.60;;
11191;SDS011;5652;48.406;10.820;2023-06-26T13:04:12;5.05;;;4.07;;
11191;SDS011;5652;48.406;10.820;2023-06-26T13:06:39;6.47;;;4.43;;
11191;SDS011;5652;48.406;10.820;2023-06-26T13:09:06;8.03;;;4.73;;
11191;SDS011;5652;48.406;10.820;2023-06-26T13:11:34;4.82;;;4.03;;
11191;SDS011;5652;48.406;10.820;2023-06-26T13:14:01;7.60;;;4.50;;
11191;SDS011;5652;48.406;10.820;2023-06-26T13:16:28;5.25;;;4.55;;
11191;SDS011;5652;48.406;10.820;2023-06-26T13:18:57;5.70;;;4.40;;
11191;SDS011;5652;48.406;10.820;2023-06-26T13:21:25;6.18;;;4.45;;
11191;SDS011;5652;48.406;10.820;2023-06-26T13:23:52;5.03;;;4.40;;
11191;SDS011;5652;48.406;10.820;2023-06-26T13:26:19;5.57;;;4.65;;
11191;SDS011;5652;48.406;10.820;2023-06-26T13:28:46;4.70;;;4.20;;
11191;SDS011;5652;48.406;10.820;2023-06-26T13:31:14;6.07;;;4.72;;
11191;SDS011;5652;48.406;10.820;2023-06-26T13:33:41;6.20;;;4.70;;
11191;SDS011;5652;48.406;10.820;2023-06-26T13:36:11;5.50;;;4.38;;
11191;SDS011;5652;48.406;10.820;2023-06-26T13:38:38;5.97;;;4.32;;
11191;SDS011;5652;48.406;10.820;2023-06-26T13:41:05;6.10;;;4.55;;
11191;SDS011;5652;48.406;10.820;2023-06-26T13:43:33;5.45;;;4.30;;
11191;SDS011;5652;48.406;10.820;2023-06-26T13:46:00;7.13;;;4.35;;
11191;SDS011;5652;48.406;10.820;2023-06-26T13:48:27;6.60;;;4.70;;
11191;SDS011;5652;48.406;10.820;2023-06-26T13:50:55;5.82;;;4.70;;
11191;SDS011;5652;48.406;10.820;2023-06-26T13:53:24;5.72;;;4.40;;
11191;SDS011;5652;48.406;10.820;2023-06-26T13:55:51;5.43;;;4.50;;
11191;SDS011;5652;48.406;10.820;2023-06-26T13:58:18;6.38;;;4.68;;
11191;SDS011;5652;48.406;10.820;2023-06-26T14:00:52;6.50;;;3.80;;
11191;SDS011;5652;48.406;10.820;2023-06-26T14:03:19;6.38;;;4.38;;
11191;SDS011;5652;48.406;10.820;2023-06-26T14:05:46;6.75;;;4.65;;
11191;SDS011;5652;48.406;10.820;2023-06-26T14:08:13;6.55;;;4.28;;
11191;SDS011;5652;48.406;10.820;2023-06-26T14:10:42;6.32;;;4.65;;
11191;SDS011;5652;48.406;10.820;2023-06-26T14:13:09;5.95;;;4.70;;
11191;SDS011;5652;48.406;10.820;2023-06-26T14:15:40;5.85;;;4.70;;
11191;SDS011;5652;48.406;10.820;2023-06-26T14:18:07;7.10;;;4.40;;
11191;SDS011;5652;48.406;10.820;2023-06-26T14:20:34;8.82;;;4.32;;
11191;SDS011;5652;48.406;10.820;2023-06-26T14:23:02;7.38;;;4.63;;
11191;SDS011;5652;48.406;10.820;2023-06-26T14:25:29;5.45;;;4.40;;
11191;SDS011;5652;48.406;10.820;2023-06-26T14:27:58;5.82;;;5.05;;
11191;SDS011;5652;48.406;10.820;2023-06-26T14:30:25;6.18;;;4.75;;
11191;SDS011;5652;48.406;10.820;2023-06-26T14:32:52;5.60;;;4.90;;
11191;SDS011;5652;48.406;10.820;2023-06-26T14:35:20;6.35;;;4.95;;
11191;SDS011;5652;48.406;10.820;2023-06-26T14:37:47;6.25;;;4.75;;
11191;SDS011;5652;48.406;10.820;2023-06-26T14:40:15;5.93;;;5.33;;
11191;SDS011;5652;48.406;10.820;2023-06-26T14:42:42;6.53;;;4.93;;
11191;SDS011;5652;48.406;10.820;2023-06-26T14:45:12;7.95;;;5.32;;
11191;SDS011;5652;48.406;10.820;2023-06-26T14:47:39;5.73;;;4.97;;
11191;SDS011;5652;48.406;10.820;2023-06-26T14:50:07;6.97;;;5.00;;
11191;SDS011;5652;48.406;10.820;2023-06-26T14:52:34;6.50;;;4.97;;
11191;SDS011;5652;48.406;10.820;2023-06-26T14:55:02;6.78;;;5.32;;
11191;SDS011;5652;48.406;10.820;2023-06-26T14:57:29;8.55;;;5.10;;
11191;SDS011;5652;48.406;10.820;2023-06-26T14:59:56;7.22;;;5.10;;
11191;SDS011;5652;48.406;10.820;2023-06-26T15:02:25;6.57;;;5.13;;
11191;SDS011;5652;48.406;10.820;2023-06-26T15:04:52;7.28;;;5.30;;